Time;durP1;ratioP1;P1;durP2;ratioP2;P2;SDS_P1;SDS_P2;PMS_P1;PMS_P2;Temp;Humidity;BMP_temperature;BMP_pressure;BME280_temperature;BME280_humidity;BME280_pressure;Samples;Min_cycle;Max_cycle;Signal;HPM_P1;HPM_P2
2023/08/09 00:01:35;;;;;;;4.90;0.80;;;;;;;13.40;100.00;100554.88;5052505;28;20442;-67
2023/08/09 00:04:01;;;;;;;5.20;1.00;;;;;;;13.41;100.00;100542.84;5053173;28;20446;-67
2023/08/09 00:06:28;;;;;;;5.37;1.20;;;;;;;13.36;100.00;100552.78;5052792;28;20486;-66
2023/08/09 00:08:55;;;;;;;4.90;1.00;;;;;;;13.30;100.00;100554.06;5053064;28;20466;-66
2023/08/09 00:11:21;;;;;;;6.83;1.13;;;;;;;13.33;100.00;100548.00;5052688;28;20460;-66
2023/08/09 00:13:48;;;;;;;5.50;1.50;;;;;;;13.31;100.00;100544.78;5052575;28;20571;-66
2023/08/09 00:16:14;;;;;;;5.63;1.17;;;;;;;13.30;100.00;100550.56;5056235;28;20490;-66
2023/08/09 00:18:42;;;;;;;8.40;1.20;;;;;;;13.30;100.00;100545.91;5056457;28;20464;-66
2023/08/09 00:21:09;;;;;;;5.90;1.00;;;;;;;13.32;100.00;100546.38;5056692;28;20446;-66
2023/08/09 00:23:36;;;;;;;9.20;1.83;;;;;;;13.35;100.00;100558.56;5056848;28;20442;-66
2023/08/09 00:26:02;;;;;;;9.90;2.63;;;;;;;13.30;100.00;100564.94;5055772;28;20934;-66
2023/08/09 00:28:29;;;;;;;5.17;1.03;;;;;;;13.33;100.00;100560.81;5056155;28;20454;-66
2023/08/09 00:30:55;;;;;;;5.10;0.90;;;;;;;13.35;100.00;100559.34;5056276;28;20452;-66
2023/08/09 00:33:22;;;;;;;5.40;1.03;;;;;;;13.34;100.00;100560.47;5055754;28;20541;-67
2023/08/09 00:35:50;;;;;;;5.97;1.20;;;;;;;13.34;100.00;100560.47;5055714;28;20970;-67
2023/08/09 00:38:17;;;;;;;6.90;1.60;;;;;;;13.32;100.00;100567.34;5056410;28;20940;-67
2023/08/09 00:40:43;;;;;;;6.80;1.53;;;;;;;13.35;100.00;100562.06;5056068;28;20538;-67
2023/08/09 00:43:10;;;;;;;5.03;1.00;;;;;;;13.37;100.00;100565.28;5055680;28;20941;-67
2023/08/09 00:45:45;;;;;;;5.10;1.10;;;;;;;13.38;100.00;100561.44;5055550;28;20851;-67
2023/08/09 00:48:12;;;;;;;6.70;1.40;;;;;;;13.40;100.00;100565.75;5056214;28;20454;-67
2023/08/09 00:50:39;;;;;;;5.80;1.37;;;;;;;13.36;100.00;100560.94;5055675;28;20815;-67
2023/08/09 00:53:08;;;;;;;6.00;1.30;;;;;;;13.32;100.00;100568.13;5055410;28;20523;-67
2023/08/09 00:55:34;;;;;;;6.30;1.27;;;;;;;13.32;100.00;100579.03;5055823;28;20550;-67
2023/08/09 00:58:01;;;;;;;5.33;1.17;;;;;;;13.31;100.00;100580.16;5055424;28;20470;-67
2023/08/09 01:00:28;;;;;;;5.20;1.00;;;;;;;13.29;100.00;100579.69;5055710;28;20438;-67
2023/08/09 01:02:54;;;;;;;5.30;0.93;;;;;;;13.27;100.00;100576.47;5055310;28;20541;-67
2023/08/09 01:05:24;;;;;;;5.43;1.20;;;;;;;13.30;100.00;100570.41;5055252;28;20541;-68
2023/08/09 01:07:58;;;;;;;5.00;0.90;;;;;;;13.33;100.00;100572.47;5055414;28;20496;-68
2023/08/09 01:10:32;;;;;;;5.27;1.27;;;;;;;13.33;100.00;100561.59;5055461;28;20485;-68
2023/08/09 01:13:04;;;;;;;7.13;1.40;;;;;;;13.35;100.00;100566.72;5055135;28;20453;-68
2023/08/09 01:15:33;;;;;;;5.27;1.00;;;;;;;13.36;100.00;100563.66;5055225;28;20462;-68
2023/08/09 01:18:03;;;;;;;5.30;1.03;;;;;;;13.40;100.00;100573.91;5055281;28;20918;-68
2023/08/09 01:20:31;;;;;;;4.80;0.80;;;;;;;13.41;100.00;100570.06;5055402;28;20447;-68
2023/08/09 01:23:02;;;;;;;7.20;1.40;;;;;;;13.38;100.00;100566.88;5055005;28;20938;-68
2023/08/09 01:25:31;;;;;;;4.90;0.73;;;;;;;13.40;100.00;100569.28;5054484;28;20460;-68
2023/08/09 01:27:59;;;;;;;4.93;1.07;;;;;;;13.43;100.00;100567.84;5054821;28;20442;-68
2023/08/09 01:30:27;;;;;;;5.83;1.00;;;;;;;13.45;100.00;100573.75;5055501;28;20453;-68
2023/08/09 01:32:54;;;;;;;4.77;0.87;;;;;;;13.45;100.00;100576.47;5055167;28;20440;-68
2023/08/09 01:35:22;;;;;;;5.20;1.23;;;;;;;13.45;100.00;100577.28;5054690;28;20512;-68
2023/08/09 01:37:53;;;;;;;5.00;1.00;;;;;;;13.50;100.00;100576.31;5055449;28;20438;-68
2023/08/09 01:40:22;;;;;;;6.10;1.20;;;;;;;13.45;100.00;100568.31;5055133;28;20502;-68
2023/08/09 01:42:52;;;;;;;4.40;0.67;;;;;;;13.47;100.00;100564.16;5054649;28;20540;-68
2023/08/09 01:45:20;;;;;;;5.40;0.93;;;;;;;13.47;100.00;100568.81;5054560;28;20974;-68
2023/08/09 01:47:47;;;;;;;5.83;1.10;;;;;;;13.50;100.00;100565.41;5054734;28;20450;-68
2023/08/09 01:50:21;;;;;;;5.03;1.10;;;;;;;13.53;100.00;100567.50;5054514;28;21025;-68
2023/08/09 01:52:48;;;;;;;5.20;0.83;;;;;;;13.50;100.00;100562.69;5054962;28;20509;-68
2023/08/09 01:55:17;;;;;;;5.00;1.00;;;;;;;13.49;100.00;100561.91;5054736;28;20458;-67
2023/08/09 01:57:44;;;;;;;7.10;1.23;;;;;;;13.50;100.00;100562.69;5054791;28;20802;-67
2023/08/09 02:00:18;;;;;;;4.70;0.97;;;;;;;13.53;100.00;100557.41;5054747;28;20527;-67
2023/08/09 02:02:45;;;;;;;5.63;1.13;;;;;;;13.52;100.00;100555.81;5055055;28;20442;-67
2023/08/09 02:05:12;;;;;;;4.70;0.80;;;;;;;13.52;100.00;100555.03;5054795;28;20533;-67
2023/08/09 02:07:39;;;;;;;4.90;1.07;;;;;;;13.50;100.00;100552.63;5054664;28;20486;-67
2023/08/09 02:10:07;;;;;;;5.57;1.57;;;;;;;13.52;100.00;100561.28;5054580;28;20474;-67
2023/08/09 02:12:34;;;;;;;5.20;1.20;;;;;;;13.55;100.00;100560.63;5083093;22;20503;-69
2023/08/09 02:15:01;;;;;;;4.97;1.03;;;;;;;13.53;100.00;100559.34;5074052;28;20511;-69
2023/08/09 02:17:29;;;;;;;6.53;1.43;;;;;;;13.49;100.00;100566.53;5074123;28;20829;-69
2023/08/09 02:19:55;;;;;;;5.80;1.47;;;;;;;13.51;100.00;100565.13;5074195;28;20960;-69
2023/08/09 02:22:22;;;;;;;5.40;1.33;;;;;;;13.51;100.00;100558.88;5073986;28;20469;-69
2023/08/09 02:24:48;;;;;;;5.73;1.20;;;;;;;13.53;100.00;100567.50;5073593;28;20940;-69
2023/08/09 02:27:15;;;;;;;5.80;1.10;;;;;;;13.51;100.00;100567.84;5074099;28;20520;-69
2023/08/09 02:29:42;;;;;;;5.10;1.23;;;;;;;13.52;100.00;100563.19;5074162;28;20529;-69
2023/08/09 02:32:08;;;;;;;4.90;0.90;;;;;;;13.51;100.00;100575.22;5074188;28;20925;-69
2023/08/09 02:34:36;;;;;;;5.00;1.00;;;;;;;13.55;100.00;100582.41;5073653;28;20520;-69
2023/08/09 02:37:04;;;;;;;5.87;1.10;;;;;;;13.56;100.00;100588.66;5073631;28;20447;-69
2023/08/09 02:39:31;;;;;;;5.10;0.90;;;;;;;13.50;100.00;100573.59;5074074;28;20470;-69
2023/08/09 02:41:58;;;;;;;4.93;1.00;;;;;;;13.41;100.00;100578.22;5073847;28;20449;-69
2023/08/09 02:44:25;;;;;;;4.70;0.80;;;;;;;13.33;100.00;100575.19;5074007;28;20540;-72
2023/08/09 02:46:52;;;;;;;4.70;0.60;;;;;;;13.27;100.00;100576.47;5073545;28;20485;-74
2023/08/09 02:49:18;;;;;;;5.33;1.07;;;;;;;13.31;100.00;100577.44;5074118;28;20441;-69
2023/08/09 02:51:46;;;;;;;5.40;1.20;;;;;;;13.42;100.00;100577.13;5073619;28;20441;-70
2023/08/09 02:54:13;;;;;;;7.83;1.17;;;;;;;13.45;100.00;100576.47;5073578;28;20524;-69
2023/08/09 02:56:39;;;;;;;5.13;1.00;;;;;;;13.53;100.00;100583.84;5073582;28;20536;-69
2023/08/09 02:59:06;;;;;;;5.13;1.00;;;;;;;13.58;100.00;100586.38;5073879;28;20476;-69
2023/08/09 03:01:33;;;;;;;6.03;1.30;;;;;;;13.61;100.00;100580.31;5073941;28;20461;-69
2023/08/09 03:04:00;;;;;;;5.40;1.00;;;;;;;13.63;100.00;100588.94;5073472;28;20494;-70
2023/08/09 03:06:27;;;;;;;5.20;1.13;;;;;;;13.65;100.00;100578.56;5073259;28;20571;-70
2023/08/09 03:08:55;;;;;;;5.10;0.90;;;;;;;13.63;100.00;100583.50;5073491;28;20461;-70
2023/08/09 03:11:23;;;;;;;6.60;1.00;;;;;;;13.61;100.00;100585.75;5073108;28;20449;-70
2023/08/09 03:13:50;;;;;;;4.63;0.70;;;;;;;13.55;100.00;100578.88;5073070;28;21007;-70
2023/08/09 03:16:17;;;;;;;5.20;1.10;;;;;;;13.51;100.00;100583.38;5073291;28;20454;-70
2023/08/09 03:18:43;;;;;;;4.50;0.60;;;;;;;13.47;100.00;100580.47;5073279;28;20449;-70
2023/08/09 03:21:10;;;;;;;5.33;0.90;;;;;;;13.42;100.00;100588.00;5072985;28;20525;-70
2023/08/09 03:23:37;;;;;;;6.70;1.27;;;;;;;13.38;100.00;100582.41;5073235;28;20448;-70
2023/08/09 03:26:05;;;;;;;4.73;0.80;;;;;;;13.37;100.00;100578.88;5073090;28;20544;-70
2023/08/09 03:28:33;;;;;;;5.50;1.17;;;;;;;13.40;100.00;100590.25;5072897;28;20536;-70
2023/08/09 03:31:00;;;;;;;4.60;0.73;;;;;;;13.42;100.00;100593.47;5073219;28;20520;-70
2023/08/09 03:33:27;;;;;;;7.50;1.50;;;;;;;13.40;100.00;100595.69;5072832;28;20468;-69
2023/08/09 03:35:53;;;;;;;4.90;1.00;;;;;;;13.39;100.00;100600.31;5073160;28;20504;-69
2023/08/09 03:38:20;;;;;;;4.73;0.80;;;;;;;13.37;100.00;100599.84;5073197;28;20472;-70
2023/08/09 03:40:47;;;;;;;6.07;1.33;;;;;;;13.34;100.00;100598.56;5073467;28;20524;-69
2023/08/09 03:43:15;;;;;;;5.60;1.10;;;;;;;13.33;100.00;100607.84;5073106;28;20517;-69
2023/08/09 03:45:42;;;;;;;5.40;1.03;;;;;;;13.32;100.00;100614.38;5072952;28;20460;-69
2023/08/09 03:48:08;;;;;;;5.93;1.10;;;;;;;13.33;100.00;100615.22;5072574;28;20481;-69
2023/08/09 03:50:35;;;;;;;5.60;1.33;;;;;;;13.29;100.00;100617.75;5076167;28;20443;-70
2023/08/09 03:53:02;;;;;;;5.73;1.07;;;;;;;13.28;100.00;100618.06;5076715;28;20437;-70
2023/08/09 03:55:29;;;;;;;8.80;1.20;;;;;;;13.24;100.00;100619.84;5076904;28;20552;-70
2023/08/09 03:57:56;;;;;;;5.50;1.23;;;;;;;13.16;100.00;100607.00;5076686;28;20901;-70
2023/08/09 04:00:26;;;;;;;5.30;1.10;;;;;;;13.19;100.00;100618.03;5076970;28;20444;-70
2023/08/09 04:02:52;;;;;;;5.50;1.37;;;;;;;13.19;100.00;100618.03;5076422;28;20455;-70
2023/08/09 04:05:19;;;;;;;5.60;1.37;;;;;;;13.15;100.00;100619.81;5076668;28;20456;-70
2023/08/09 04:07:46;;;;;;;4.73;0.93;;;;;;;13.09;100.00;100613.69;5076405;28;20821;-70
2023/08/09 04:10:13;;;;;;;4.80;1.00;;;;;;;13.05;100.00;100617.34;5077099;28;20444;-70
2023/08/09 04:12:40;;;;;;;5.10;0.93;;;;;;;13.01;100.00;100619.09;5076435;28;20456;-70
2023/08/09 04:15:08;;;;;;;10.10;1.10;;;;;;;12.95;100.00;100618.47;5076338;28;20491;-70
2023/08/09 04:17:36;;;;;;;5.30;1.00;;;;;;;12.90;100.00;100626.75;5076419;28;20441;-70
2023/08/09 04:20:03;;;;;;;5.83;1.17;;;;;;;12.86;100.00;100631.22;5076710;28;20531;-70
2023/08/09 04:22:30;;;;;;;4.87;0.93;;;;;;;12.81;100.00;100629.47;5076691;28;20789;-70
2023/08/09 04:24:57;;;;;;;8.37;1.03;;;;;;;12.84;100.00;100626.13;5076160;28;20547;-70
2023/08/09 04:27:23;;;;;;;5.00;1.10;;;;;;;12.83;100.00;100631.84;5076123;28;20480;-70
2023/08/09 04:29:51;;;;;;;5.90;0.97;;;;;;;12.90;100.00;100645.00;5076172;28;20523;-70
2023/08/09 04:32:17;;;;;;;6.43;1.07;;;;;;;12.95;100.00;100631.25;5076140;28;20481;-70
2023/08/09 04:34:45;;;;;;;5.00;1.07;;;;;;;13.03;100.00;100634.00;5076090;28;20499;-70
2023/08/09 04:37:12;;;;;;;5.10;1.07;;;;;;;13.05;100.00;100644.56;5075706;28;20437;-70
2023/08/09 04:39:38;;;;;;;5.33;1.13;;;;;;;13.09;100.00;100643.59;5075987;28;20441;-71
2023/08/09 04:42:05;;;;;;;4.60;0.70;;;;;;;13.16;100.00;100650.50;5075987;28;20525;-70
2023/08/09 04:44:32;;;;;;;5.20;1.17;;;;;;;13.20;100.00;100651.50;5076164;28;20437;-70
2023/08/09 04:46:59;;;;;;;4.93;1.00;;;;;;;13.24;100.00;100649.75;5075734;28;20572;-71
2023/08/09 04:49:26;;;;;;;5.07;0.90;;;;;;;13.29;100.00;100652.34;5075817;28;20438;-70
2023/08/09 04:51:54;;;;;;;6.00;1.60;;;;;;;13.33;100.00;100658.75;5076112;28;20439;-70
2023/08/09 04:54:21;;;;;;;7.67;1.63;;;;;;;13.37;100.00;100657.78;5075565;28;20532;-70
2023/08/09 04:56:48;;;;;;;6.03;1.33;;;;;;;13.40;100.00;100664.50;5075327;28;20464;-70
2023/08/09 04:59:14;;;;;;;5.20;1.13;;;;;;;13.39;100.00;100662.91;5075612;28;20441;-70
2023/08/09 05:01:41;;;;;;;6.90;1.20;;;;;;;13.43;100.00;100668.53;5075310;28;20532;-70
2023/08/09 05:04:08;;;;;;;5.03;0.80;;;;;;;13.43;100.00;100671.25;5075574;28;20536;-75
2023/08/09 05:06:35;;;;;;;5.60;1.20;;;;;;;13.47;100.00;100672.22;5075367;28;20472;-74
2023/08/09 05:09:03;;;;;;;5.17;1.10;;;;;;;13.47;100.00;100674.94;5075124;28;20976;-71
2023/08/09 05:11:29;;;;;;;4.73;0.80;;;;;;;13.47;100.00;100674.94;5075107;28;20555;-71
2023/08/09 05:13:56;;;;;;;5.20;1.00;;;;;;;13.46;100.00;100676.03;5075341;28;20453;-71
2023/08/09 05:16:25;;;;;;;5.17;1.03;;;;;;;13.44;100.00;100686.44;5075495;28;20522;-71
2023/08/09 05:18:52;;;;;;;5.27;1.30;;;;;;;13.40;100.00;100688.97;5075505;28;20441;-71
2023/08/09 05:21:19;;;;;;;5.67;1.17;;;;;;;13.42;100.00;100683.25;5075513;28;20513;-71
2023/08/09 05:23:45;;;;;;;6.07;1.10;;;;;;;13.43;100.00;100682.13;5074865;28;20874;-71
2023/08/09 05:26:13;;;;;;;4.90;1.00;;;;;;;13.47;100.00;100681.16;5074954;28;20457;-71
2023/08/09 05:28:40;;;;;;;5.47;1.30;;;;;;;13.53;100.00;100688.06;5075310;28;20481;-73
2023/08/09 05:31:07;;;;;;;4.73;0.93;;;;;;;13.58;100.00;100687.09;5074969;28;20441;-70
2023/08/09 05:33:33;;;;;;;5.10;0.97;;;;;;;13.63;100.00;100687.75;5074905;28;20492;-71
2023/08/09 05:36:00;;;;;;;5.27;0.97;;;;;;;13.72;100.00;100682.28;5074766;28;20461;-70
2023/08/09 05:38:27;;;;;;;5.10;1.03;;;;;;;13.82;100.00;100695.63;5074800;28;20849;-70
2023/08/09 05:40:53;;;;;;;5.40;1.03;;;;;;;13.95;100.00;100687.59;5074822;28;20463;-70
2023/08/09 05:43:21;;;;;;;5.87;1.00;;;;;;;13.99;100.00;100689.38;5074734;28;20520;-70
2023/08/09 05:45:48;;;;;;;6.87;1.23;;;;;;;14.10;100.00;100687.09;5074697;28;20489;-70
2023/08/09 05:48:15;;;;;;;5.27;0.80;;;;;;;14.21;99.25;100688.38;5074536;28;20555;-70
2023/08/09 05:50:41;;;;;;;5.30;0.90;;;;;;;14.36;98.18;100692.53;5074589;28;20508;-70
2023/08/09 05:53:09;;;;;;;4.90;0.87;;;;;;;14.50;96.87;100692.34;5074467;28;20536;-70
2023/08/09 05:55:36;;;;;;;5.60;1.10;;;;;;;14.61;96.53;100696.34;5074149;28;20499;-70
2023/08/09 05:58:03;;;;;;;4.60;0.70;;;;;;;14.73;96.42;100693.72;5074637;28;20445;-70
2023/08/09 06:00:32;;;;;;;5.00;0.90;;;;;;;14.76;95.21;100703.19;5074621;28;20522;-70
2023/08/09 06:02:59;;;;;;;6.70;0.90;;;;;;;14.83;97.55;100698.84;5074457;28;20526;-72
2023/08/09 06:05:26;;;;;;;5.00;0.97;;;;;;;14.88;97.29;100706.03;5074235;28;20457;-71
2023/08/09 06:07:53;;;;;;;4.90;0.80;;;;;;;14.94;98.20;100701.19;5073973;28;21087;-73
2023/08/09 06:10:21;;;;;;;4.80;0.87;;;;;;;14.97;98.25;100701.34;5074263;28;20521;-70
2023/08/09 06:12:48;;;;;;;5.37;0.90;;;;;;;14.93;96.58;100707.78;5073625;28;20828;-70
2023/08/09 06:15:15;;;;;;;4.90;1.00;;;;;;;14.95;96.44;100708.25;5074299;28;20544;-70
2023/08/09 06:17:43;;;;;;;4.60;0.77;;;;;;;14.92;96.38;100711.63;5073806;28;20972;-70
2023/08/09 06:20:12;;;;;;;5.00;0.80;;;;;;;14.90;97.11;100711.97;5073670;28;20449;-70
2023/08/09 06:22:39;;;;;;;5.20;1.00;;;;;;;14.92;97.33;100714.34;5073982;28;20433;-70
2023/08/09 06:25:07;;;;;;;6.60;1.37;;;;;;;14.93;97.59;100726.88;5074192;28;20485;-70
2023/08/09 06:27:33;;;;;;;5.47;1.50;;;;;;;15.01;98.21;100726.06;5074188;28;20491;-70
2023/08/09 06:30:00;;;;;;;5.30;1.30;;;;;;;15.08;99.61;100724.38;5074115;28;20471;-70
2023/08/09 06:32:28;;;;;;;4.80;0.83;;;;;;;15.13;99.59;100728.88;5074293;28;20525;-70
2023/08/09 06:34:56;;;;;;;14.80;1.27;;;;;;;15.21;97.30;100724.50;5073768;28;20465;-70
2023/08/09 06:37:22;;;;;;;5.43;1.40;;;;;;;15.27;96.41;100726.72;5073921;28;20483;-70
2023/08/09 06:39:49;;;;;;;5.70;1.33;;;;;;;15.34;96.54;100720.75;5074097;28;20445;-70
2023/08/09 06:42:16;;;;;;;7.43;1.30;;;;;;;15.43;96.54;100728.88;5073819;28;20488;-70
2023/08/09 06:44:43;;;;;;;7.23;0.97;;;;;;;15.48;97.16;100720.50;5073712;28;20433;-70
2023/08/09 06:47:10;;;;;;;7.07;1.30;;;;;;;15.53;93.06;100723.03;5073867;28;20528;-71
2023/08/09 06:49:37;;;;;;;5.30;1.00;;;;;;;15.62;94.33;100723.78;5073716;28;20441;-70
2023/08/09 06:52:05;;;;;;;4.87;1.00;;;;;;;15.62;91.02;100718.31;5073712;28;20533;-71
2023/08/09 06:54:32;;;;;;;6.80;0.80;;;;;;;15.69;90.94;100720.56;5073860;28;20524;-70
2023/08/09 06:56:59;;;;;;;9.13;1.33;;;;;;;15.75;89.17;100728.22;5073533;28;20479;-70
2023/08/09 06:59:25;;;;;;;5.80;1.10;;;;;;;15.82;88.56;100731.22;5073860;28;20437;-70
2023/08/09 07:01:52;;;;;;;4.60;0.80;;;;;;;15.84;88.05;100728.94;5073543;28;20835;-70
2023/08/09 07:04:19;;;;;;;4.50;0.77;;;;;;;15.97;87.22;100729.03;5073196;28;20855;-71
2023/08/09 07:06:46;;;;;;;4.80;0.67;;;;;;;16.07;88.51;100726.69;5073380;28;20465;-70
2023/08/09 07:09:18;;;;;;;4.73;1.00;;;;;;;16.17;86.05;100732.88;5074045;28;20546;-70
2023/08/09 07:11:45;;;;;;;4.63;0.80;;;;;;;16.29;85.90;100741.13;5073564;28;20452;-71
2023/08/09 07:14:11;;;;;;;4.50;0.80;;;;;;;16.39;85.13;100738.78;5073660;28;20528;-71
2023/08/09 07:16:38;;;;;;;4.70;0.90;;;;;;;16.46;84.91;100732.75;5073816;28;20457;-72
2023/08/09 07:19:05;;;;;;;4.60;0.70;;;;;;;16.55;82.11;100738.13;5074126;28;20433;-71
2023/08/09 07:21:34;;;;;;;6.90;1.10;;;;;;;16.52;83.12;100747.03;5073611;28;20426;-71
2023/08/09 07:24:00;;;;;;;7.73;1.30;;;;;;;16.52;83.75;100752.50;5075777;28;20469;-71
2023/08/09 07:26:28;;;;;;;4.43;0.73;;;;;;;16.46;84.57;100748.38;5077650;28;20544;-70
2023/08/09 07:28:55;;;;;;;5.47;1.07;;;;;;;16.42;82.90;100758.38;5077692;28;20516;-70
2023/08/09 07:31:23;;;;;;;4.50;0.60;;;;;;;16.44;82.88;100753.38;5078278;28;20447;-70
2023/08/09 07:33:51;;;;;;;4.87;0.90;;;;;;;16.49;80.83;100755.91;5077588;28;20524;-70
2023/08/09 07:36:18;;;;;;;10.33;1.00;;;;;;;16.54;82.39;100764.69;5077605;28;20507;-71
2023/08/09 07:38:45;;;;;;;9.80;1.20;;;;;;;16.56;81.44;100759.69;5077919;28;20520;-70
2023/08/09 07:41:11;;;;;;;4.47;0.80;;;;;;;16.68;83.41;100780.81;5077615;28;20508;-70
2023/08/09 07:43:40;;;;;;;4.40;0.63;;;;;;;16.75;83.43;100778.34;5077823;28;20437;-70
2023/08/09 07:46:06;;;;;;;8.57;0.87;;;;;;;16.75;81.38;100778.34;5077468;28;20971;-70
2023/08/09 07:48:33;;;;;;;5.13;0.90;;;;;;;16.85;82.75;100786.13;5077592;28;20920;-69
2023/08/09 07:51:00;;;;;;;4.40;0.73;;;;;;;16.89;80.73;100783.50;5077166;28;20536;-71
2023/08/09 07:53:27;;;;;;;6.10;0.80;;;;;;;16.87;79.30;100785.81;5076465;28;20433;-72
2023/08/09 07:55:54;;;;;;;6.10;1.13;;;;;;;16.90;81.25;100798.78;5076718;28;20983;-74
2023/08/09 07:58:21;;;;;;;6.10;0.87;;;;;;;16.94;78.56;100807.13;5076456;28;20436;-68
2023/08/09 08:00:49;;;;;;;4.20;0.50;;;;;;;17.01;78.21;100802.69;5076451;28;21000;-69
2023/08/09 08:03:15;;;;;;;6.40;0.90;;;;;;;17.02;77.78;100808.97;5076664;28;20857;-68
2023/08/09 08:05:43;;;;;;;4.87;0.70;;;;;;;17.04;76.80;100803.94;5076549;28;21044;-69
2023/08/09 08:08:09;;;;;;;4.67;0.70;;;;;;;17.01;77.82;100802.69;5076486;28;20516;-69
2023/08/09 08:13:14;;;;;;;4.70;0.70;;;;;;;17.10;80.09;100811.63;5054441;28;20481;-68
2023/08/09 08:15:40;;;;;;;5.63;0.90;;;;;;;17.26;78.36;100817.22;5056308;28;20991;-68
2023/08/09 08:18:09;;;;;;;5.30;1.00;;;;;;;17.39;78.76;100813.34;5056170;28;20478;-68
2023/08/09 08:20:36;;;;;;;13.73;1.10;;;;;;;17.53;79.32;100818.50;5056710;28;20479;-68
2023/08/09 08:23:04;;;;;;;5.83;0.93;;;;;;;17.65;78.94;100813.00;5056707;28;20470;-68
2023/08/09 08:25:30;;;;;;;4.73;0.77;;;;;;;17.76;78.54;100821.63;5056536;28;20484;-67
2023/08/09 08:27:57;;;;;;;4.70;0.90;;;;;;;17.85;77.45;100824.22;5056073;28;20496;-67
2023/08/09 08:30:23;;;;;;;4.60;0.83;;;;;;;17.87;75.80;100825.47;5056184;28;20442;-68
2023/08/09 08:32:51;;;;;;;5.93;0.70;;;;;;;17.93;73.65;100825.22;5055824;28;20949;-69
2023/08/09 08:35:21;;;;;;;4.40;0.63;;;;;;;18.00;73.13;100826.25;5055812;28;20477;-67
2023/08/09 08:37:49;;;;;;;7.07;1.20;;;;;;;18.07;72.29;100831.19;5055985;28;20449;-67
2023/08/09 08:40:19;;;;;;;9.97;1.17;;;;;;;18.12;70.39;100828.97;5056016;28;20438;-67
2023/08/09 08:42:46;;;;;;;4.20;0.60;;;;;;;18.20;71.42;100831.94;5056006;28;20580;-67
2023/08/09 08:45:15;;;;;;;4.70;0.80;;;;;;;18.26;69.71;100836.84;5055872;28;20458;-67
2023/08/09 08:47:43;;;;;;;6.67;1.07;;;;;;;18.20;72.57;100842.91;5056246;28;20526;-68
2023/08/09 08:50:11;;;;;;;4.63;0.63;;;;;;;18.19;73.59;100838.56;5055639;28;20521;-68
2023/08/09 08:52:42;;;;;;;4.70;0.60;;;;;;;18.22;73.20;100841.41;5055835;28;20529;-67
2023/08/09 08:55:10;;;;;;;4.30;0.60;;;;;;;18.29;72.82;100851.81;5055665;28;20469;-67
2023/08/09 08:57:38;;;;;;;4.47;0.57;;;;;;;18.28;72.97;100847.44;5055335;28;20454;-67
2023/08/09 09:00:08;;;;;;;5.90;0.97;;;;;;;18.21;71.80;100856.28;5055376;28;20512;-67
2023/08/09 09:02:35;;;;;;;5.80;0.90;;;;;;;18.15;70.87;100861.19;5056478;28;20438;-67
2023/08/09 09:05:01;;;;;;;5.20;0.70;;;;;;;18.30;69.49;100873.38;5055662;28;20549;-67
2023/08/09 09:07:29;;;;;;;4.77;0.80;;;;;;;18.40;69.61;100870.16;5055555;28;20545;-67
2023/08/09 09:10:03;;;;;;;4.80;0.90;;;;;;;18.39;67.15;100873.25;5055382;28;20508;-67
2023/08/09 09:12:30;;;;;;;4.23;0.53;;;;;;;18.39;68.43;100865.03;5069102;28;20449;-67
2023/08/09 09:14:56;;;;;;;4.57;0.80;;;;;;;18.47;70.55;100871.53;5075253;28;20540;-67
2023/08/09 09:17:23;;;;;;;4.10;0.50;;;;;;;18.58;69.92;100865.19;5075341;28;20540;-67
2023/08/09 09:19:51;;;;;;;4.17;0.60;;;;;;;18.67;70.98;100870.53;5075431;28;20446;-67
2023/08/09 09:22:28;;;;;;;4.37;0.70;;;;;;;18.82;69.37;100882.75;5075597;28;20526;-67
2023/08/09 09:24:58;;;;;;;6.50;0.80;;;;;;;18.96;68.47;100866.69;5074891;28;20543;-67
2023/08/09 09:27:41;;;;;;;5.33;0.90;;;;;;;19.15;68.35;100868.75;5075460;28;20437;-68
2023/08/09 09:30:13;;;;;;;4.63;0.67;;;;;;;19.26;65.40;100878.06;5075220;28;20469;-67
2023/08/09 09:32:41;;;;;;;12.60;0.90;;;;;;;19.35;65.93;100872.41;5075398;28;20425;-67
2023/08/09 09:35:10;;;;;;;4.50;0.73;;;;;;;19.33;63.35;100878.25;5074545;28;20457;-68
2023/08/09 09:37:37;;;;;;;4.30;0.50;;;;;;;19.17;66.70;100874.69;5075809;28;20446;-67
2023/08/09 09:40:10;;;;;;;6.80;1.00;;;;;;;19.08;64.61;100876.78;5074551;28;20925;-67
2023/08/09 09:42:38;;;;;;;4.40;0.60;;;;;;;19.07;66.29;100877.94;5075359;28;20422;-67
2023/08/09 09:45:07;;;;;;;7.27;1.27;;;;;;;18.99;65.16;100876.13;5074755;28;21030;-68
2023/08/09 09:47:38;;;;;;;4.23;0.60;;;;;;;18.95;66.93;100883.47;5074068;28;20469;-69
2023/08/09 09:50:08;;;;;;;4.33;0.70;;;;;;;19.00;64.27;100888.75;5074322;28;20469;-68
2023/08/09 09:52:36;;;;;;;6.10;0.80;;;;;;;19.10;62.89;100882.72;5074669;28;20461;-68
2023/08/09 09:55:03;;;;;;;4.40;0.60;;;;;;;19.19;62.41;100877.09;5074915;28;20563;-68
2023/08/09 09:57:29;;;;;;;4.40;0.70;;;;;;;19.41;62.37;100876.47;5074625;28;20901;-68
2023/08/09 10:00:00;;;;;;;6.57;0.90;;;;;;;19.59;61.29;100871.44;5074481;28;20913;-68
2023/08/09 10:02:32;;;;;;;6.30;0.67;;;;;;;19.77;59.80;100880.94;5074711;28;20422;-68
2023/08/09 10:05:01;;;;;;;7.70;0.90;;;;;;;19.76;58.32;100882.09;5074341;28;20902;-68
2023/08/09 10:07:30;;;;;;;4.27;0.67;;;;;;;19.70;58.56;100872.53;5074316;28;20494;-68
2023/08/09 10:10:01;;;;;;;5.03;0.80;;;;;;;19.71;58.53;100876.06;5074037;28;20477;-68
2023/08/09 10:12:28;;;;;;;4.20;0.57;;;;;;;19.75;61.02;100864.00;5074057;28;20456;-67
2023/08/09 10:14:56;;;;;;;4.30;0.70;;;;;;;19.79;59.01;100881.41;5073829;28;20970;-68
2023/08/09 10:17:28;;;;;;;4.20;0.63;;;;;;;19.80;59.32;100882.97;5074626;28;20446;-67
2023/08/09 10:19:57;;;;;;;5.40;0.77;;;;;;;19.68;60.16;100874.81;5073865;28;20932;-68
2023/08/09 10:22:24;;;;;;;4.27;0.53;;;;;;;19.60;62.76;100884.00;5074347;28;20437;-68
2023/08/09 10:24:51;;;;;;;4.70;0.80;;;;;;;19.56;62.15;100883.91;5074058;28;20496;-67
2023/08/09 10:27:50;;;;;;;4.77;0.77;;;;;;;19.59;60.22;100885.16;5073989;28;20445;-68
2023/08/09 10:30:17;;;;;;;6.53;0.77;;;;;;;19.50;63.13;100890.03;5073576;28;20560;-68
2023/08/09 10:32:57;;;;;;;4.53;0.80;;;;;;;19.34;61.44;100887.28;5073879;28;20510;-68
2023/08/09 10:35:45;;;;;;;6.80;0.73;;;;;;;19.27;61.47;100896.16;5073807;28;20453;-68
2023/08/09 10:38:13;;;;;;;4.40;0.50;;;;;;;19.20;61.85;100897.91;5073983;28;20902;-68
2023/08/09 10:40:41;;;;;;;4.70;0.60;;;;;;;19.20;63.05;100908.88;5073891;28;20451;-68
2023/08/09 10:43:09;;;;;;;4.50;0.80;;;;;;;19.29;63.07;100909.50;5073996;28;20477;-68
2023/08/09 10:45:35;;;;;;;5.37;0.50;;;;;;;19.30;64.30;100909.19;5074004;28;20464;-68
2023/08/09 10:48:20;;;;;;;4.47;0.67;;;;;;;19.29;65.06;100907.56;5073773;28;20465;-67
2023/08/09 10:50:46;;;;;;;4.40;0.80;;;;;;;19.29;64.92;100913.06;5073913;28;20509;-67
2023/08/09 10:53:21;;;;;;;5.23;0.63;;;;;;;19.54;63.65;100912.91;5073611;28;20528;-67
2023/08/09 10:55:49;;;;;;;7.00;0.90;;;;;;;19.88;61.00;100911.44;5073230;28;20953;-68
2023/08/09 10:58:15;;;;;;;5.57;0.50;;;;;;;20.26;59.46;100915.47;5073518;28;20445;-68
2023/08/09 11:00:42;;;;;;;4.87;0.73;;;;;;;20.53;59.87;100908.22;5073677;28;20448;-68
2023/08/09 11:03:11;;;;;;;4.93;0.83;;;;;;;20.87;62.70;100910.13;5073478;28;20443;-68
2023/08/09 11:05:39;;;;;;;4.50;0.60;;;;;;;20.84;59.76;100919.09;5073704;28;20453;-68
2023/08/09 11:08:17;;;;;;;4.73;0.90;;;;;;;20.70;57.82;100929.03;5073266;28;20524;-68
2023/08/09 11:10:45;;;;;;;4.73;0.63;;;;;;;20.61;58.27;100920.97;5073793;28;20445;-68
2023/08/09 11:13:14;;;;;;;5.07;1.00;;;;;;;20.40;60.80;100922.06;5073322;28;20465;-68
2023/08/09 11:15:44;;;;;;;6.53;0.63;;;;;;;20.23;60.14;100922.50;5073753;28;20507;-68
2023/08/09 11:18:11;;;;;;;4.87;0.50;;;;;;;20.35;61.67;100914.09;5074017;28;20436;-73
2023/08/09 11:20:39;;;;;;;4.97;0.80;;;;;;;20.28;60.29;100927.72;5073362;28;20816;-68
2023/08/09 11:23:06;;;;;;;4.30;0.57;;;;;;;20.33;58.57;100927.44;5073285;28;20469;-68
2023/08/09 11:25:34;;;;;;;4.00;0.40;;;;;;;20.32;60.55;100927.78;5073562;28;20872;-67
2023/08/09 11:28:02;;;;;;;5.17;0.87;;;;;;;20.22;61.57;100926.38;5073711;28;20445;-67